createdAt,value
2023-01-01T08:31:16.963Z,97055.44
2023-01-01T08:32:18.382Z,97066.75
2023-01-01T08:33:19.867Z,97067.81
2023-01-01T08:34:21.227Z,97073.22
2023-01-01T08:35:22.659Z,97065.81
2023-01-01T08:36:24.557Z,97067.66
2023-01-01T08:37:25.934Z,97064.69
2023-01-01T08:38:27.410Z,97073.31
2023-01-01T08:39:29.014Z,97070.97
2023-01-01T08:40:30.490Z,97064.81
2023-01-01T08:41:31.835Z,97072.69
2023-01-01T08:42:33.254Z,97068.22
2023-01-01T08:43:34.671Z,97054.66
2023-01-01T08:44:36.179Z,97073.19
2023-01-01T08:45:37.612Z,97072.34
2023-01-01T08:46:39.139Z,97065.16
2023-01-01T08:47:40.581Z,97066.50
2023-01-01T08:48:42.416Z,97067.56
2023-01-01T08:49:43.827Z,97070.50
2023-01-01T08:50:45.213Z,97074.13
2023-01-01T08:51:46.764Z,97076.81
2023-01-01T08:52:48.177Z,97070.63
2023-01-01T08:53:51.555Z,97071.03
2023-01-01T08:54:53.212Z,97075.78
2023-01-01T08:56:03.812Z,97061.44
2023-01-01T08:57:05.707Z,97062.19
2023-01-01T08:58:07.629Z,97068.22
2023-01-01T08:59:09.117Z,97060.28
2023-01-01T09:00:14.358Z,97045.16
2023-01-01T09:01:16.521Z,97068.03
2023-01-01T09:02:18.193Z,97061.91
2023-01-01T09:03:20.852Z,97063.06
2023-01-01T09:04:22.380Z,97066.47
2023-01-01T09:05:23.903Z,97055.75
2023-01-01T09:06:25.360Z,97050.75
2023-01-01T09:07:26.781Z,97061.63
2023-01-01T09:08:28.516Z,97051.03
2023-01-01T09:09:31.817Z,97053.69
2023-01-01T09:10:33.464Z,97055.38
2023-01-01T09:11:34.978Z,97062.81
2023-01-01T09:12:36.494Z,97062.25
2023-01-01T09:13:37.879Z,97060.63
2023-01-01T09:14:39.279Z,97069.00
2023-01-01T09:15:42.769Z,97061.63
2023-01-01T09:16:44.499Z,97059.09
2023-01-01T09:17:46.027Z,97056.78
2023-01-01T09:18:47.648Z,97055.25
2023-01-01T09:19:49.188Z,97061.75
2023-01-01T09:20:50.618Z,97055.25
2023-01-01T09:21:52.373Z,97057.13
2023-01-01T09:22:53.734Z,97057.72
2023-01-01T09:23:55.064Z,97051.16
2023-01-01T09:24:56.579Z,97057.72
2023-01-01T09:26:05.641Z,97067.28
2023-01-01T09:27:07.093Z,97062.31
2023-01-01T09:28:12.077Z,97051.03
2023-01-01T09:29:18.245Z,97054.16
2023-01-01T09:30:20.305Z,97064.47
2023-01-01T09:31:21.733Z,97076.16
2023-01-01T09:32:24.141Z,97069.66
2023-01-01T09:33:25.617Z,97071.72
2023-01-01T09:34:28.000Z,97070.94
2023-01-01T09:35:29.943Z,97076.63
2023-01-01T09:36:33.516Z,97083.47
2023-01-01T09:37:34.937Z,97076.50
2023-01-01T09:38:36.558Z,97067.47
2023-01-01T09:39:37.933Z,97081.75
2023-01-01T09:41:00.251Z,97068.06
2023-01-01T09:42:22.811Z,97089.28
2023-01-01T09:43:24.461Z,97077.06
2023-01-01T09:44:46.879Z,97092.09
2023-01-01T09:46:01.539Z,97084.91
2023-01-01T09:47:05.849Z,97078.97
2023-01-01T09:48:13.383Z,97083.53
2023-01-01T09:49:29.245Z,97084.78
2023-01-01T09:50:45.811Z,97076.22
2023-01-01T09:51:58.114Z,97092.31
2023-01-01T09:53:04.657Z,97092.66
2023-01-01T09:54:37.922Z,97090.59
2023-01-01T09:56:02.353Z,97093.25
2023-01-01T09:57:10.475Z,97090.50
2023-01-01T09:58:15.259Z,97096.53
2023-01-01T09:59:16.721Z,97092.34
2023-01-01T10:00:20.112Z,97087.56
2023-01-01T10:01:45.125Z,97094.97
2023-01-01T10:03:06.837Z,97093.06
2023-01-01T10:04:32.545Z,97098.31
2023-01-01T10:05:45.349Z,97088.56
2023-01-01T10:07:25.696Z,97083.59
2023-01-01T10:08:41.027Z,97085.34
2023-01-01T10:09:54.701Z,97078.34
2023-01-01T10:11:15.027Z,97087.88
2023-01-01T10:12:54.769Z,97076.22
2023-01-01T10:13:59.140Z,97083.63
2023-01-01T10:15:15.964Z,97084.75
2023-01-01T10:16:25.475Z,97092.28
2023-01-01T10:17:40.059Z,97088.38
2023-01-01T10:18:42.845Z,97084.75
2023-01-01T10:19:50.680Z,97092.22
2023-01-01T10:21:07.880Z,97073.28
2023-01-01T10:22:14.974Z,97093.56
2023-01-01T10:23:19.759Z,97086.38
2023-01-01T10:24:35.948Z,97083.28
2023-01-01T10:25:40.658Z,97084.63
2023-01-01T10:26:42.035Z,97084.56
2023-01-01T10:27:59.929Z,97073.16
2023-01-01T10:29:08.745Z,97083.31
2023-01-01T10:30:17.467Z,97081.66
2023-01-01T10:31:29.447Z,97083.47
2023-01-01T10:32:33.478Z,97073.31
2023-01-01T10:33:34.817Z,97080.00
2023-01-01T10:34:36.166Z,97080.34
2023-01-01T10:35:48.737Z,97079.59
2023-01-01T10:36:54.050Z,97077.94
2023-01-01T10:37:55.394Z,97073.69
2023-01-01T10:38:56.755Z,97074.75
2023-01-01T10:39:58.183Z,97071.75
2023-01-01T10:41:05.795Z,97078.56
2023-01-01T10:42:07.421Z,97062.09
2023-01-01T10:43:11.924Z,97073.69
2023-01-01T10:44:15.917Z,97063.66
2023-01-01T10:45:49.036Z,97066.72
2023-01-01T10:46:56.356Z,97067.69
2023-01-01T10:48:27.628Z,97063.75
2023-01-01T10:49:29.167Z,97072.84
2023-01-01T10:50:45.878Z,97069.44
2023-01-01T10:51:49.601Z,97076.13
2023-01-01T10:52:56.730Z,97064.03
2023-01-01T10:53:58.201Z,97071.63
2023-01-01T10:55:00.224Z,97070.69
2023-01-01T10:56:05.473Z,97078.28
2023-01-01T10:57:29.395Z,97069.69
2023-01-01T10:58:41.160Z,97071.94
2023-01-01T10:59:49.868Z,97074.16
2023-01-01T11:00:59.651Z,97072.00
2023-01-01T11:02:31.674Z,97072.19
2023-01-01T11:03:33.916Z,97065.47
2023-01-01T11:04:35.376Z,97066.41
2023-01-01T11:05:36.846Z,97066.03
2023-01-01T11:06:43.202Z,97066.84
2023-01-01T11:07:44.985Z,97067.00
2023-01-01T11:08:49.898Z,97054.50
2023-01-01T11:10:02.701Z,97065.69
2023-01-01T11:11:05.641Z,97056.53
2023-01-01T11:12:46.012Z,97065.06
2023-01-01T11:13:40.354Z,97062.53
2023-01-01T11:14:50.828Z,97072.72
2023-01-01T11:15:52.667Z,97061.66
2023-01-01T11:16:55.772Z,97061.13
2023-01-01T11:18:12.403Z,97064.66
2023-01-01T11:19:37.653Z,97064.41
2023-01-01T11:20:40.258Z,97049.97
2023-01-01T11:21:47.067Z,97058.03
2023-01-01T11:22:51.491Z,97060.66
2023-01-01T11:24:16.291Z,97059.38
2023-01-01T11:25:26.768Z,97047.47
2023-01-01T11:26:28.237Z,97050.22
2023-01-01T11:27:29.627Z,97043.75
2023-01-01T11:28:34.942Z,97045.88
2023-01-01T11:29:36.373Z,97049.53
2023-01-01T11:30:39.102Z,97041.00
2023-01-01T11:31:40.596Z,97034.66
2023-01-01T11:32:42.157Z,97037.88
2023-01-01T11:33:45.864Z,97020.31
2023-01-01T11:35:00.348Z,97041.25
2023-01-01T11:36:02.406Z,97035.53
2023-01-01T11:37:21.179Z,97029.44
2023-01-01T11:38:29.465Z,97030.50
2023-01-01T11:39:32.850Z,97016.63
2023-01-01T11:40:45.466Z,97019.66
2023-01-01T11:41:49.296Z,97028.72
2023-01-01T11:42:58.234Z,97025.09
2023-01-01T11:44:00.325Z,97016.94
2023-01-01T11:45:06.857Z,97007.25
2023-01-01T11:46:12.173Z,97013.41
2023-01-01T11:47:57.911Z,97007.16
2023-01-01T11:48:59.761Z,97002.47
2023-01-01T11:50:16.231Z,97011.34
2023-01-01T11:51:31.917Z,97007.97
2023-01-01T11:52:42.327Z,97002.50
2023-01-01T11:53:43.963Z,96995.63
2023-01-01T11:54:46.521Z,96998.69
2023-01-01T11:56:08.137Z,97005.03
2023-01-01T11:57:16.193Z,96988.84
2023-01-01T11:58:35.767Z,97005.81
2023-01-01T11:59:46.796Z,97007.75
2023-01-01T12:00:54.175Z,97005.59
2023-01-01T12:01:59.888Z,96993.34
2023-01-01T12:03:11.972Z,96997.53
2023-01-01T12:04:20.358Z,96999.00
2023-01-01T12:05:34.341Z,97000.50
2023-01-01T12:06:56.488Z,97000.84
2023-01-01T12:08:00.172Z,96991.38
2023-01-01T12:09:18.250Z,96991.47
2023-01-01T12:10:27.715Z,96993.19
2023-01-01T12:11:41.567Z,96991.38
2023-01-01T12:12:48.574Z,96992.59
2023-01-01T12:14:12.841Z,96988.47
2023-01-01T12:15:31.278Z,96993.28
2023-01-01T12:16:46.690Z,96980.72
2023-01-01T12:17:58.053Z,96978.69
2023-01-01T12:19:15.605Z,96978.47
2023-01-01T12:20:27.862Z,96977.44
2023-01-01T12:21:31.027Z,96974.03
2023-01-01T12:22:32.799Z,96974.47
2023-01-01T12:23:34.760Z,96969.91
2023-01-01T12:24:36.812Z,96967.69
2023-01-01T12:25:45.363Z,96965.06
2023-01-01T12:27:23.616Z,96924.50
2023-01-01T12:28:39.913Z,96962.69
2023-01-01T12:29:53.172Z,96964.19
2023-01-01T12:31:24.781Z,96958.75
2023-01-01T12:33:00.812Z,96963.19
2023-01-01T12:34:36.788Z,96969.78
2023-01-01T12:36:04.892Z,96970.59
2023-01-01T12:37:09.257Z,96975.81
2023-01-01T12:38:29.174Z,96966.97
2023-01-01T12:39:30.523Z,96972.47
2023-01-01T12:40:39.759Z,96955.19
2023-01-01T12:41:41.044Z,96967.28
2023-01-01T12:42:57.665Z,96965.91
2023-01-01T12:44:16.655Z,96967.38
2023-01-01T12:45:31.304Z,96968.97
2023-01-01T12:47:08.343Z,96969.03
2023-01-01T12:48:41.110Z,96968.34
2023-01-01T12:50:21.521Z,96968.63
2023-01-01T12:51:37.990Z,96968.78
2023-01-01T12:52:55.806Z,96959.91
2023-01-01T12:54:28.855Z,96964.28
2023-01-01T12:55:48.825Z,96962.91
2023-01-01T12:57:14.487Z,96970.59
2023-01-01T12:58:27.079Z,96958.06
2023-01-01T12:59:42.526Z,96970.72
2023-01-01T13:00:54.414Z,96966.72
2023-01-01T13:01:59.482Z,96964.84
2023-01-01T13:03:12.103Z,96963.22
2023-01-01T13:04:18.907Z,96951.00
2023-01-01T13:05:28.632Z,96952.16
2023-01-01T13:06:46.097Z,96954.16
2023-01-01T13:07:51.410Z,96956.44
2023-01-01T13:08:59.483Z,96956.34
2023-01-01T13:10:23.794Z,96950.56
2023-01-01T13:11:27.415Z,96941.44
2023-01-01T13:12:29.983Z,96944.84
2023-01-01T13:13:31.410Z,96945.06
2023-01-01T13:14:46.916Z,96944.41
2023-01-01T13:15:57.570Z,96938.50
2023-01-01T13:16:58.997Z,96940.72
2023-01-01T13:18:02.524Z,96947.47
2023-01-01T13:19:04.919Z,96940.94
2023-01-01T13:20:06.299Z,96942.81
2023-01-01T13:21:22.509Z,96938.97
2023-01-01T13:22:26.383Z,96954.38
2023-01-01T13:23:38.349Z,96943.69
2023-01-01T13:24:40.055Z,96941.03
2023-01-01T13:25:41.590Z,96936.44
2023-01-01T13:26:43.312Z,96939.31
2023-01-01T13:27:57.238Z,96934.97
2023-01-01T13:28:58.515Z,96937.22
2023-01-01T13:29:59.905Z,96941.41
2023-01-01T13:31:01.732Z,96937.09
2023-01-01T13:32:05.291Z,96915.75
2023-01-01T13:33:17.589Z,96935.75
2023-01-01T13:34:38.448Z,96918.09
2023-01-01T13:35:45.914Z,96927.19
2023-01-01T13:36:47.406Z,96927.88
2023-01-01T13:37:48.919Z,96923.78
2023-01-01T13:38:51.939Z,96921.91
2023-01-01T13:40:05.705Z,96912.28
2023-01-01T13:41:27.591Z,96925.13
2023-01-01T13:42:57.665Z,96924.28
2023-01-01T13:44:03.226Z,96921.78
2023-01-01T13:46:09.353Z,96922.63
2023-01-01T13:47:10.018Z,96928.53
2023-01-01T13:49:01.885Z,96933.06
2023-01-01T13:50:20.013Z,96934.28
2023-01-01T13:52:08.468Z,96932.75
2023-01-01T13:53:22.669Z,96924.72
2023-01-01T13:54:44.151Z,96934.28
2023-01-01T13:56:05.450Z,96942.72
2023-01-01T13:57:44.387Z,96940.31
2023-01-01T13:59:07.893Z,96940.91
2023-01-01T14:00:23.099Z,96941.41
2023-01-01T14:01:50.771Z,96941.31
2023-01-01T14:03:08.692Z,96937.13
2023-01-01T14:04:43.225Z,96941.81
2023-01-01T14:05:46.456Z,96931.38
2023-01-01T14:06:51.685Z,96940.44
2023-01-01T14:07:55.208Z,96938.28
2023-01-01T14:09:06.778Z,96940.88
2023-01-01T14:10:31.489Z,96951.16
2023-01-01T14:11:33.045Z,96930.50
2023-01-01T14:12:38.349Z,96945.00
2023-01-01T14:13:41.307Z,96941.78
2023-01-01T14:14:42.718Z,96940.91
2023-01-01T14:15:52.440Z,96940.91
2023-01-01T14:16:57.336Z,96945.16
2023-01-01T14:18:01.459Z,96936.88
2023-01-01T14:19:03.476Z,96943.94
2023-01-01T14:20:07.523Z,96941.31
2023-01-01T14:21:12.311Z,96939.00
2023-01-01T14:22:16.401Z,96943.09
2023-01-01T14:23:27.211Z,96945.31
2023-01-01T14:24:28.674Z,96941.31
2023-01-01T14:25:30.252Z,96950.97
2023-01-01T14:26:34.021Z,96954.56
2023-01-01T14:27:35.552Z,96952.13
2023-01-01T14:28:38.560Z,96943.22
2023-01-01T14:29:41.059Z,96952.78
2023-01-01T14:30:44.448Z,96946.97
2023-01-01T14:31:46.733Z,96953.53
2023-01-01T14:32:59.426Z,96941.56
2023-01-01T14:34:02.327Z,96949.38
2023-01-01T14:35:04.021Z,96948.25
2023-01-01T14:36:15.110Z,96937.91
2023-01-01T14:37:24.861Z,96938.47
2023-01-01T14:38:29.300Z,96948.13
2023-01-01T14:39:35.604Z,96946.53
2023-01-01T14:40:38.592Z,96942.22
2023-01-01T14:41:41.899Z,96939.31
2023-01-01T14:42:45.784Z,96936.88
2023-01-01T14:43:50.013Z,96947.72
2023-01-01T14:44:53.540Z,96944.16
2023-01-01T14:45:55.651Z,96934.53
2023-01-01T14:46:57.499Z,96952.84
2023-01-01T14:47:59.271Z,96941.78
2023-01-01T14:49:08.596Z,96945.66
2023-01-01T14:50:10.320Z,96944.78
2023-01-01T14:51:31.801Z,96925.59
2023-01-01T14:52:35.506Z,96945.53
2023-01-01T14:53:36.991Z,96950.53
2023-01-01T14:54:43.536Z,96946.28
2023-01-01T14:55:47.206Z,96941.19
2023-01-01T14:56:51.087Z,96940.09
2023-01-01T14:57:59.084Z,96940.66
2023-01-01T14:59:15.469Z,96946.47
2023-01-01T15:00:26.369Z,96954.47
2023-01-01T15:01:27.946Z,96946.94
2023-01-01T15:02:37.976Z,96942.44
2023-01-01T15:03:39.571Z,96941.31
2023-01-01T15:04:41.317Z,96943.38
2023-01-01T15:05:44.486Z,96947.97
2023-01-01T15:06:52.529Z,96932.53
2023-01-01T15:08:02.559Z,96947.97
2023-01-01T15:09:04.277Z,96946.16
2023-01-01T15:10:06.223Z,96942.97
2023-01-01T15:11:08.009Z,96945.13
2023-01-01T15:12:13.826Z,96938.31
2023-01-01T15:13:23.447Z,96948.09
2023-01-01T15:14:35.341Z,96942.28
2023-01-01T15:15:43.066Z,96938.75
2023-01-01T15:16:44.526Z,96937.75
2023-01-01T15:17:47.156Z,96934.97
2023-01-01T15:18:53.370Z,96928.63
2023-01-01T15:20:06.072Z,96917.84
2023-01-01T15:21:18.043Z,96921.22
2023-01-01T15:22:35.065Z,96922.06
2023-01-01T15:23:37.008Z,96928.84
2023-01-01T15:24:39.490Z,96929.78
2023-01-01T15:25:42.703Z,96927.22
2023-01-01T15:26:51.039Z,96931.91
2023-01-01T15:27:55.523Z,96933.84
2023-01-01T15:29:01.186Z,96934.69
2023-01-01T15:30:13.211Z,96925.28
2023-01-01T15:31:15.451Z,96938.34
2023-01-01T15:32:24.856Z,96932.50
